sensor_id;sensor_type;location;lat;lon;timestamp;P1;P2;P0
74440;PMS7003;62870;54.692;25.284;2024-01-15T00:02:48;0;0;0
74440;PMS7003;62870;54.692;25.284;2024-01-15T00:08:20;0;0;0
74440;PMS7003;62870;54.692;25.284;2024-01-15T00:22:54;0;0;0
74440;PMS7003;62870;54.692;25.284;2024-01-15T00:28:08;0;0;0
74440;PMS7003;62870;54.692;25.284;2024-01-15T00:32:44;0;0;0
74440;PMS7003;62870;54.692;25.284;2024-01-15T00:38:22;0;0;0
74440;PMS7003;62870;54.692;25.284;2024-01-15T00:42:48;0.2;0;0
74440;PMS7003;62870;54.692;25.284;2024-01-15T00:48:08;0;0;0
74440;PMS7003;62870;54.692;25.284;2024-01-15T00:52:48;0.2;0.2;0.2
74440;PMS7003;62870;54.692;25.284;2024-01-15T00:57:28;0;0;0
74440;PMS7003;62870;54.692;25.284;2024-01-15T01:02:54;0;0;0
74440;PMS7003;62870;54.692;25.284;2024-01-15T01:07:54;0;0;0
74440;PMS7003;62870;54.692;25.284;2024-01-15T01:12:36;0;0;0
74440;PMS7003;62870;54.692;25.284;2024-01-15T01:18:02;0;0;0
74440;PMS7003;62870;54.692;25.284;2024-01-15T01:22:40;0;0;0
74440;PMS7003;62870;54.692;25.284;2024-01-15T01:28:22;0;0;0
74440;PMS7003;62870;54.692;25.284;2024-01-15T01:33:00;0.2;0;0
74440;PMS7003;62870;54.692;25.284;2024-01-15T01:37:28;0;0;0
74440;PMS7003;62870;54.692;25.284;2024-01-15T01:43:20;0;0;0
74440;PMS7003;62870;54.692;25.284;2024-01-15T01:48:08;0.2;0;0
74440;PMS7003;62870;54.692;25.284;2024-01-15T01:53:20;0;0;0
74440;PMS7003;62870;54.692;25.284;2024-01-15T01:57:29;0;0;0
74440;PMS7003;62870;54.692;25.284;2024-01-15T02:02:40;0;0;0
74440;PMS7003;62870;54.692;25.284;2024-01-15T02:07:54;0;0;0
74440;PMS7003;62870;54.692;25.284;2024-01-15T02:13:20;0;0;0
74440;PMS7003;62870;54.692;25.284;2024-01-15T02:17:28;0;0;0
74440;PMS7003;62870;54.692;25.284;2024-01-15T02:23:08;0;0;0
74440;PMS7003;62870;54.692;25.284;2024-01-15T02:27:36;0;0;0
74440;PMS7003;62870;54.692;25.284;2024-01-15T02:33:09;0.6;0;0
74440;PMS7003;62870;54.692;25.284;2024-01-15T02:37:48;0.2;0;0
74440;PMS7003;62870;54.692;25.284;2024-01-15T02:42:44;0.2;0.2;0.2
74440;PMS7003;62870;54.692;25.284;2024-01-15T02:47:36;0.2;0;0
74440;PMS7003;62870;54.692;25.284;2024-01-15T02:52:41;0.6;0.2;0.2
74440;PMS7003;62870;54.692;25.284;2024-01-15T02:57:44;0;0;0
74440;PMS7003;62870;54.692;25.284;2024-01-15T03:03:22;0;0;0
74440;PMS7003;62870;54.692;25.284;2024-01-15T03:08:00;0.4;0.4;0.2
74440;PMS7003;62870;54.692;25.284;2024-01-15T03:13:03;1.3;0.3;0.3
74440;PMS7003;62870;54.692;25.284;2024-01-15T03:18:08;0.6;0.2;0
74440;PMS7003;62870;54.692;25.284;2024-01-15T03:22:48;0;0;0
74440;PMS7003;62870;54.692;25.284;2024-01-15T03:27:38;0.8;0.4;0.4
74440;PMS7003;62870;54.692;25.284;2024-01-15T03:32:54;0.8;0.8;0.4
74440;PMS7003;62870;54.692;25.284;2024-01-15T03:38:08;0.4;0.2;0
74440;PMS7003;62870;54.692;25.284;2024-01-15T03:42:54;0.2;0.2;0.2
74440;PMS7003;62870;54.692;25.284;2024-01-15T03:47:58;0.4;0.4;0
74440;PMS7003;62870;54.692;25.284;2024-01-15T03:52:46;0.2;0.2;0
74440;PMS7003;62870;54.692;25.284;2024-01-15T03:58:20;0.8;0.4;0
74440;PMS7003;62870;54.692;25.284;2024-01-15T04:02:46;0.6;0.4;0.2
74440;PMS7003;62870;54.692;25.284;2024-01-15T04:08:03;0.8;0.8;0.4
74440;PMS7003;62870;54.692;25.284;2024-01-15T04:13:23;0.5;0.5;0.3
74440;PMS7003;62870;54.692;25.284;2024-01-15T04:17:28;1.2;0.6;0.2
74440;PMS7003;62870;54.692;25.284;2024-01-15T04:23:03;0.6;0.2;0.2
74440;PMS7003;62870;54.692;25.284;2024-01-15T04:28:09;0.8;0.6;0.2
74440;PMS7003;62870;54.692;25.284;2024-01-15T04:32:46;0.6;0.4;0.2
74440;PMS7003;62870;54.692;25.284;2024-01-15T04:37:28;1.4;0.8;0.6
74440;PMS7003;62870;54.692;25.284;2024-01-15T04:43:20;1;0.4;0.2
74440;PMS7003;62870;54.692;25.284;2024-01-15T04:47:48;0;0;0
74440;PMS7003;62870;54.692;25.284;2024-01-15T04:53:22;0.6;0.6;0.6
74440;PMS7003;62870;54.692;25.284;2024-01-15T04:58:03;0.8;0.8;0.2
74440;PMS7003;62870;54.692;25.284;2024-01-15T05:03:20;0.2;0.2;0
74440;PMS7003;62870;54.692;25.284;2024-01-15T05:07:55;0.4;0.2;0.2
74440;PMS7003;62870;54.692;25.284;2024-01-15T05:13:08;1.3;1.3;1.3
74440;PMS7003;62870;54.692;25.284;2024-01-15T05:18:22;1;0.8;0.6
74440;PMS7003;62870;54.692;25.284;2024-01-15T05:23:09;1;1;0.8
74440;PMS7003;62870;54.692;25.284;2024-01-15T05:28:08;1.2;0.6;0.4
74440;PMS7003;62870;54.692;25.284;2024-01-15T05:33:20;2.2;1.4;1.2
74440;PMS7003;62870;54.692;25.284;2024-01-15T05:38:21;1.6;1.6;1.2
74440;PMS7003;62870;54.692;25.284;2024-01-15T05:43:03;1;1;0.6
74440;PMS7003;62870;54.692;25.284;2024-01-15T05:48:21;2.2;2;1.4
74440;PMS7003;62870;54.692;25.284;2024-01-15T05:52:38;1.6;1.4;1.4
74440;PMS7003;62870;54.692;25.284;2024-01-15T05:57:28;2.2;2;1.8
74440;PMS7003;62870;54.692;25.284;2024-01-15T06:02:29;2;1.8;1.4
74440;PMS7003;62870;54.692;25.284;2024-01-15T06:07:45;2;1.6;1.4
74440;PMS7003;62870;54.692;25.284;2024-01-15T06:12:37;3.4;2.8;2
74440;PMS7003;62870;54.692;25.284;2024-01-15T06:17:29;1.3;1.3;1
74440;PMS7003;62870;54.692;25.284;2024-01-15T06:22:41;2.4;2.2;1.4
74440;PMS7003;62870;54.692;25.284;2024-01-15T06:28:21;2.4;2.2;2
74440;PMS7003;62870;54.692;25.284;2024-01-15T06:33:03;2.8;2.6;1.8
74440;PMS7003;62870;54.692;25.284;2024-01-15T06:37:49;3.4;3;2
74440;PMS7003;62870;54.692;25.284;2024-01-15T06:43:23;2.4;2;1.4
74440;PMS7003;62870;54.692;25.284;2024-01-15T06:48:09;2.8;2.6;2.2
74440;PMS7003;62870;54.692;25.284;2024-01-15T06:53:07;3.6;3.4;2.6
74440;PMS7003;62870;54.692;25.284;2024-01-15T06:57:55;3.2;2.8;2.4
74440;PMS7003;62870;54.692;25.284;2024-01-15T07:03:07;3.2;3;2.6
74440;PMS7003;62870;54.692;25.284;2024-01-15T07:07:55;3.2;2.6;2.2
74440;PMS7003;62870;54.692;25.284;2024-01-15T07:13:06;3.4;3.2;2.6
74440;PMS7003;62870;54.692;25.284;2024-01-15T07:17:50;3;2.8;2.3
74440;PMS7003;62870;54.692;25.284;2024-01-15T07:23:21;3.6;3.2;2.6
74440;PMS7003;62870;54.692;25.284;2024-01-15T07:27:47;4.6;4.2;3.2
74440;PMS7003;62870;54.692;25.284;2024-01-15T07:33:23;4.4;3.8;3
74440;PMS7003;62870;54.692;25.284;2024-01-15T07:37:29;4;3.6;2.8
74440;PMS7003;62870;54.692;25.284;2024-01-15T07:43:09;3.4;3.2;2.8
74440;PMS7003;62870;54.692;25.284;2024-01-15T07:47:55;4.2;3.4;2.8
74440;PMS7003;62870;54.692;25.284;2024-01-15T07:52:29;3.6;3.4;2.6
74440;PMS7003;62870;54.692;25.284;2024-01-15T07:57:53;3.6;3.6;2.8
74440;PMS7003;62870;54.692;25.284;2024-01-15T08:03:23;4.2;3.8;2.8
74440;PMS7003;62870;54.692;25.284;2024-01-15T08:08:21;4;3.8;2.8
74440;PMS7003;62870;54.692;25.284;2024-01-15T08:12:49;4.4;3.4;2.8
74440;PMS7003;62870;54.692;25.284;2024-01-15T08:18:09;3.8;3.8;3
74440;PMS7003;62870;54.692;25.284;2024-01-15T08:22:29;3.8;3.8;3.4
74440;PMS7003;62870;54.692;25.284;2024-01-15T08:27:59;4.6;4.2;3
74440;PMS7003;62870;54.692;25.284;2024-01-15T08:32:45;4.2;3.6;2.8
74440;PMS7003;62870;54.692;25.284;2024-01-15T08:38:07;5;4.2;3.4
74440;PMS7003;62870;54.692;25.284;2024-01-15T08:42:53;4.6;3.8;3.2
74440;PMS7003;62870;54.692;25.284;2024-01-15T08:48:09;5;4.4;3.4
74440;PMS7003;62870;54.692;25.284;2024-01-15T08:53:03;4.4;4.2;3.4
74440;PMS7003;62870;54.692;25.284;2024-01-15T08:58:24;4.6;4.2;3.4
74440;PMS7003;62870;54.692;25.284;2024-01-15T09:02:29;4.8;4.4;3.4
74440;PMS7003;62870;54.692;25.284;2024-01-15T09:08:01;5;5;3.8
74440;PMS7003;62870;54.692;25.284;2024-01-15T09:13:21;4.4;4;3.2
74440;PMS7003;62870;54.692;25.284;2024-01-15T09:17:29;4.8;4.5;3.8
74440;PMS7003;62870;54.692;25.284;2024-01-15T09:23:01;4.4;4;3
74440;PMS7003;62870;54.692;25.284;2024-01-15T09:27:41;4.8;4.2;3.4
74440;PMS7003;62870;54.692;25.284;2024-01-15T09:32:37;4;3.8;3
74440;PMS7003;62870;54.692;25.284;2024-01-15T09:37:39;4.6;4.2;3.2
74440;PMS7003;62870;54.692;25.284;2024-01-15T09:43:23;4.4;3.8;3
74440;PMS7003;62870;54.692;25.284;2024-01-15T09:47:49;4.2;4.2;3.4
74440;PMS7003;62870;54.692;25.284;2024-01-15T09:53:23;4;4;3
74440;PMS7003;62870;54.692;25.284;2024-01-15T09:58:01;5;4.4;3.8
74440;PMS7003;62870;54.692;25.284;2024-01-15T10:03:09;4.8;4.8;3.8
74440;PMS7003;62870;54.692;25.284;2024-01-15T10:07:55;4.2;4;3
74440;PMS7003;62870;54.692;25.284;2024-01-15T10:13:07;4.2;4.2;3.6
74440;PMS7003;62870;54.692;25.284;2024-01-15T10:18:23;4.8;4.5;3.3
74440;PMS7003;62870;54.692;25.284;2024-01-15T10:23:21;6.2;5.4;4.2
74440;PMS7003;62870;54.692;25.284;2024-01-15T10:28:09;4.4;4.4;3.4
74440;PMS7003;62870;54.692;25.284;2024-01-15T10:33:21;5.8;5.6;4.6
74440;PMS7003;62870;54.692;25.284;2024-01-15T10:38:21;4.4;4;3.4
74440;PMS7003;62870;54.692;25.284;2024-01-15T10:43:03;5.4;5.2;4
74440;PMS7003;62870;54.692;25.284;2024-01-15T10:48:23;5.6;5.6;4.4
74440;PMS7003;62870;54.692;25.284;2024-01-15T10:52:29;6.2;5.4;4.4
74440;PMS7003;62870;54.692;25.284;2024-01-15T10:57:55;7.2;6;4.4
74440;PMS7003;62870;54.692;25.284;2024-01-15T11:02:41;5.6;5;4
74440;PMS7003;62870;54.692;25.284;2024-01-15T11:07:29;5.4;5.4;4.4
74440;PMS7003;62870;54.692;25.284;2024-01-15T11:12:37;5.8;5;4
74440;PMS7003;62870;54.692;25.284;2024-01-15T11:17:59;6.3;6;4.8
74440;PMS7003;62870;54.692;25.284;2024-01-15T11:22:47;8.4;6.4;5.4
74440;PMS7003;62870;54.692;25.284;2024-01-15T11:28:46;6.8;6.2;5
74440;PMS7003;62870;54.692;25.284;2024-01-15T11:33:03;7.4;7.2;5.6
74440;PMS7003;62870;54.692;25.284;2024-01-15T11:37:56;7.2;6.4;4.8
74440;PMS7003;62870;54.692;25.284;2024-01-15T11:43:21;7.4;7;5.6
74440;PMS7003;62870;54.692;25.284;2024-01-15T11:48:10;8.4;8;5.8
74440;PMS7003;62870;54.692;25.284;2024-01-15T11:53:08;7.4;7;6
74440;PMS7003;62870;54.692;25.284;2024-01-15T11:57:53;9;7.4;5.4
74440;PMS7003;62870;54.692;25.284;2024-01-15T12:03:07;8.4;7.8;6
74440;PMS7003;62870;54.692;25.284;2024-01-15T12:08:20;8.8;8;6
74440;PMS7003;62870;54.692;25.284;2024-01-15T12:13:21;7.6;6.8;5.6
74440;PMS7003;62870;54.692;25.284;2024-01-15T12:17:47;8;7.2;6.2
74440;PMS7003;62870;54.692;25.284;2024-01-15T12:23:07;9.8;9;6.5
74440;PMS7003;62870;54.692;25.284;2024-01-15T12:27:47;8.4;7.8;6.2
74440;PMS7003;62870;54.692;25.284;2024-01-15T12:33:19;9.2;7.8;6
74440;PMS7003;62870;54.692;25.284;2024-01-15T12:37:29;8.2;7.8;6
74440;PMS7003;62870;54.692;25.284;2024-01-15T12:42:29;8.4;8.2;6.4
74440;PMS7003;62870;54.692;25.284;2024-01-15T12:47:37;7.4;7;5.8
74440;PMS7003;62870;54.692;25.284;2024-01-15T12:53:07;8.4;7.6;5.6
74440;PMS7003;62870;54.692;25.284;2024-01-15T12:57:37;8;7.4;5.8
74440;PMS7003;62870;54.692;25.284;2024-01-15T13:02:31;8.4;8;6.2
74440;PMS7003;62870;54.692;25.284;2024-01-15T13:08:21;8.6;8;6.4
74440;PMS7003;62870;54.692;25.284;2024-01-15T13:12:29;8.8;8.8;6.4
74440;PMS7003;62870;54.692;25.284;2024-01-15T13:18:07;7.8;7.6;5.6
74440;PMS7003;62870;54.692;25.284;2024-01-15T13:22:29;8;7;5.5
74440;PMS7003;62870;54.692;25.284;2024-01-15T13:28:07;8.6;7.8;5.8
74440;PMS7003;62870;54.692;25.284;2024-01-15T13:32:53;7.6;7.6;5.8
74440;PMS7003;62870;54.692;25.284;2024-01-15T13:38:05;9;8.4;7
74440;PMS7003;62870;54.692;25.284;2024-01-15T13:42:51;8.6;8;6.4
74440;PMS7003;62870;54.692;25.284;2024-01-15T13:48:07;7;7;5.4
74440;PMS7003;62870;54.692;25.284;2024-01-15T13:52:29;7;6.6;5.6
74440;PMS7003;62870;54.692;25.284;2024-01-15T13:58:21;8;7.4;5.8
74440;PMS7003;62870;54.692;25.284;2024-01-15T14:02:47;8;7.2;5.6
74440;PMS7003;62870;54.692;25.284;2024-01-15T14:08:03;7;7;6
74440;PMS7003;62870;54.692;25.284;2024-01-15T14:13:01;8;7.2;5.8
74440;PMS7003;62870;54.692;25.284;2024-01-15T14:17:49;8;7.6;5.8
74440;PMS7003;62870;54.692;25.284;2024-01-15T14:22:37;7.5;7;5.5
74440;PMS7003;62870;54.692;25.284;2024-01-15T14:27:29;8.8;7.6;6
74440;PMS7003;62870;54.692;25.284;2024-01-15T14:32:41;9;8;6
74440;PMS7003;62870;54.692;25.284;2024-01-15T14:38:21;7.6;6.8;5.6
74440;PMS7003;62870;54.692;25.284;2024-01-15T14:43:05;8.8;8;6.2
74440;PMS7003;62870;54.692;25.284;2024-01-15T14:47:53;6.6;6.6;5.6
74440;PMS7003;62870;54.692;25.284;2024-01-15T14:53:07;7.2;7;5.6
74440;PMS7003;62870;54.692;25.284;2024-01-15T14:57:53;7;6.8;5.6
74440;PMS7003;62870;54.692;25.284;2024-01-15T15:03:07;6.6;6.4;5.4
74440;PMS7003;62870;54.692;25.284;2024-01-15T15:07:47;7;6.6;5
74440;PMS7003;62870;54.692;25.284;2024-01-15T15:13:21;6.2;5.6;4.6
74440;PMS7003;62870;54.692;25.284;2024-01-15T15:17:29;6.2;6;5
74440;PMS7003;62870;54.692;25.284;2024-01-15T15:23:01;7.8;7;5.5
74440;PMS7003;62870;54.692;25.284;2024-01-15T15:28:21;6;6;5
74440;PMS7003;62870;54.692;25.284;2024-01-15T15:32:49;5.6;5.2;4.6
74440;PMS7003;62870;54.692;25.284;2024-01-15T15:37:37;6.6;6.2;5
74440;PMS7003;62870;54.692;25.284;2024-01-15T15:42:37;5.4;5;4.2
74440;PMS7003;62870;54.692;25.284;2024-01-15T15:47:53;7.6;5.8;4.4
74440;PMS7003;62870;54.692;25.284;2024-01-15T15:52:37;6;6;4.8
74440;PMS7003;62870;54.692;25.284;2024-01-15T15:58:21;6.2;5.6;4.2
74440;PMS7003;62870;54.692;25.284;2024-01-15T16:02:41;5.8;5.4;3.8
74440;PMS7003;62870;54.692;25.284;2024-01-15T16:08:05;5.6;4.2;3.2
74440;PMS7003;62870;54.692;25.284;2024-01-15T16:13:03;4.8;4.6;3.6
74440;PMS7003;62870;54.692;25.284;2024-01-15T16:18:21;4.6;4.4;3.4
74440;PMS7003;62870;54.692;25.284;2024-01-15T16:22:53;4.3;4;3
74440;PMS7003;62870;54.692;25.284;2024-01-15T16:28:07;4;3.8;3
74440;PMS7003;62870;54.692;25.284;2024-01-15T16:33:19;3.4;3.2;2.4
74440;PMS7003;62870;54.692;25.284;2024-01-15T16:38:21;3.8;3.6;3.2
74440;PMS7003;62870;54.692;25.284;2024-01-15T16:43:07;3;3;2.4
74440;PMS7003;62870;54.692;25.284;2024-01-15T16:48:21;3.4;3;2.2
74440;PMS7003;62870;54.692;25.284;2024-01-15T16:53:21;3.8;3.4;2.8
74440;PMS7003;62870;54.692;25.284;2024-01-15T16:58:01;3;2.6;2.4
74440;PMS7003;62870;54.692;25.284;2024-01-15T17:03:21;3.6;3.2;2.6
74440;PMS7003;62870;54.692;25.284;2024-01-15T17:08:01;4;3.6;2.6
74440;PMS7003;62870;54.692;25.284;2024-01-15T17:12:45;3.6;3.6;2.8
74440;PMS7003;62870;54.692;25.284;2024-01-15T17:17:37;3.8;3.4;3
74440;PMS7003;62870;54.692;25.284;2024-01-15T17:22:45;3;3;2.4
74440;PMS7003;62870;54.692;25.284;2024-01-15T17:27:47;3;3;2.3
74440;PMS7003;62870;54.692;25.284;2024-01-15T17:32:49;2;2;1.4
74440;PMS7003;62870;54.692;25.284;2024-01-15T17:37:49;3.2;3;2.6
74440;PMS7003;62870;54.692;25.284;2024-01-15T17:43:21;2.8;2.6;2
74440;PMS7003;62870;54.692;25.284;2024-01-15T17:47:31;3.2;3.2;2.8
74440;PMS7003;62870;54.692;25.284;2024-01-15T17:52:49;3.4;3.2;2.8
74440;PMS7003;62870;54.692;25.284;2024-01-15T17:58:21;4;3.8;2.8
74440;PMS7003;62870;54.692;25.284;2024-01-15T18:03:07;3.8;3.4;2.6
74440;PMS7003;62870;54.692;25.284;2024-01-15T18:08:07;4.2;4;3.2
74440;PMS7003;62870;54.692;25.284;2024-01-15T18:12:45;3.8;3.6;2.6
74440;PMS7003;62870;54.692;25.284;2024-01-15T18:18:07;3.4;3;2.2
74440;PMS7003;62870;54.692;25.284;2024-01-15T18:22:37;4;4;3
74440;PMS7003;62870;54.692;25.284;2024-01-15T18:28:21;3;2.8;1.8
74440;PMS7003;62870;54.692;25.284;2024-01-15T18:32:49;3.8;3.4;2.8
74440;PMS7003;62870;54.692;25.284;2024-01-15T18:38:07;4.2;4.2;3
74440;PMS7003;62870;54.692;25.284;2024-01-15T18:42:47;3.6;3.6;3
74440;PMS7003;62870;54.692;25.284;2024-01-15T18:48:21;3.8;2.6;1.8
74440;PMS7003;62870;54.692;25.284;2024-01-15T18:52:29;3.8;3.8;3.2
74440;PMS7003;62870;54.692;25.284;2024-01-15T18:57:29;3.8;3;2.6
74440;PMS7003;62870;54.692;25.284;2024-01-15T19:02:49;3.6;3.6;3
74440;PMS7003;62870;54.692;25.284;2024-01-15T19:07:49;4.2;3.6;3
74440;PMS7003;62870;54.692;25.284;2024-01-15T19:12:49;3.2;3;1.8
74440;PMS7003;62870;54.692;25.284;2024-01-15T19:18:17;3.8;3.6;3
74440;PMS7003;62870;54.692;25.284;2024-01-15T19:23:15;3.8;3.6;3
74440;PMS7003;62870;54.692;25.284;2024-01-15T19:27:49;4.3;4;3.3
74440;PMS7003;62870;54.692;25.284;2024-01-15T19:33:05;4.4;3.4;3.2
74440;PMS7003;62870;54.692;25.284;2024-01-15T19:38:05;3.6;3.2;2.4
74440;PMS7003;62870;54.692;25.284;2024-01-15T19:43:03;4.6;4.2;3.2
74440;PMS7003;62870;54.692;25.284;2024-01-15T19:47:29;5.4;5.2;4.2
74440;PMS7003;62870;54.692;25.284;2024-01-15T19:53:03;4.4;3.6;3.4
74440;PMS7003;62870;54.692;25.284;2024-01-15T19:57:37;4.4;4.4;3.6
74440;PMS7003;62870;54.692;25.284;2024-01-15T20:03:17;4.8;4.4;3.6
74440;PMS7003;62870;54.692;25.284;2024-01-15T20:07:29;4.4;4.4;3.2
74440;PMS7003;62870;54.692;25.284;2024-01-15T20:13:05;3;3;2.6
74440;PMS7003;62870;54.692;25.284;2024-01-15T20:17:29;4.4;3.8;2.8
74440;PMS7003;62870;54.692;25.284;2024-01-15T20:23:17;3.8;3.2;3
74440;PMS7003;62870;54.692;25.284;2024-01-15T20:27:47;4;4;3.3
74440;PMS7003;62870;54.692;25.284;2024-01-15T20:32:37;3.6;3.6;3.2
74440;PMS7003;62870;54.692;25.284;2024-01-15T20:37:29;3.6;3;2.6
74440;PMS7003;62870;54.692;25.284;2024-01-15T20:42:37;4.2;3.6;2.8
74440;PMS7003;62870;54.692;25.284;2024-01-15T20:47:29;4.4;4;3.4
74440;PMS7003;62870;54.692;25.284;2024-01-15T20:53:17;3.8;3.6;3.4
74440;PMS7003;62870;54.692;25.284;2024-01-15T20:58:20;4.2;3.8;2.6
74440;PMS7003;62870;54.692;25.284;2024-01-15T21:02:49;4.6;4.2;3.6
74440;PMS7003;62870;54.692;25.284;2024-01-15T21:08:05;4.8;4;3.6
74440;PMS7003;62870;54.692;25.284;2024-01-15T21:13:05;4.2;4.2;3
74440;PMS7003;62870;54.692;25.284;2024-01-15T21:18:03;4.2;3.6;3
74440;PMS7003;62870;54.692;25.284;2024-01-15T21:23:05;4;3.8;2.8
74440;PMS7003;62870;54.692;25.284;2024-01-15T21:28:05;4.3;4;3
74440;PMS7003;62870;54.692;25.284;2024-01-15T21:32:51;4.6;3.6;2.8
74440;PMS7003;62870;54.692;25.284;2024-01-15T21:38:05;3.2;3;2.8
74440;PMS7003;62870;54.692;25.284;2024-01-15T21:42:37;4.4;4.4;3.4
74440;PMS7003;62870;54.692;25.284;2024-01-15T21:48:19;5;4;3.8
74440;PMS7003;62870;54.692;25.284;2024-01-15T21:53:01;4.2;4.2;3.2
74440;PMS7003;62870;54.692;25.284;2024-01-15T21:58:01;3.2;3.2;3
74440;PMS7003;62870;54.692;25.284;2024-01-15T22:03:17;4.4;4;3.6
74440;PMS7003;62870;54.692;25.284;2024-01-15T22:07:49;3.8;3.4;2.8
74440;PMS7003;62870;54.692;25.284;2024-01-15T22:12:37;3.8;3.6;3
74440;PMS7003;62870;54.692;25.284;2024-01-15T22:17:29;4.2;3.8;2.8
74440;PMS7003;62870;54.692;25.284;2024-01-15T22:23:03;3.4;3.4;2.4
74440;PMS7003;62870;54.692;25.284;2024-01-15T22:27:47;3.4;3;2.4
74440;PMS7003;62870;54.692;25.284;2024-01-15T22:33:15;3.5;3.5;2.8
74440;PMS7003;62870;54.692;25.284;2024-01-15T22:37:29;3.2;3;2.8
74440;PMS7003;62870;54.692;25.284;2024-01-15T22:43:17;3.6;3.4;2.8
74440;PMS7003;62870;54.692;25.284;2024-01-15T22:47:59;3.6;3.4;3
74440;PMS7003;62870;54.692;25.284;2024-01-15T22:53:19;4;3.8;3.2
74440;PMS7003;62870;54.692;25.284;2024-01-15T22:57:29;4;3.6;2.8
74440;PMS7003;62870;54.692;25.284;2024-01-15T23:03:05;4.8;4.2;3.4
74440;PMS7003;62870;54.692;25.284;2024-01-15T23:08:17;4.2;4;3.2
74440;PMS7003;62870;54.692;25.284;2024-01-15T23:13:17;4.8;4.6;3.4
74440;PMS7003;62870;54.692;25.284;2024-01-15T23:18:03;5;4.6;4.2
74440;PMS7003;62870;54.692;25.284;2024-01-15T23:23:17;4.4;4.2;3.2
74440;PMS7003;62870;54.692;25.284;2024-01-15T23:28:17;4.4;4.4;3.6
74440;PMS7003;62870;54.692;25.284;2024-01-15T23:33:01;5;4.3;3.3
74440;PMS7003;62870;54.692;25.284;2024-01-15T23:38:17;4.8;4.6;3.6
74440;PMS7003;62870;54.692;25.284;2024-01-15T23:42:37;4.4;4.4;3.4
74440;PMS7003;62870;54.692;25.284;2024-01-15T23:47:29;4.6;4;3
74440;PMS7003;62870;54.692;25.284;2024-01-15T23:52:57;4;3.8;3
74440;PMS7003;62870;54.692;25.284;2024-01-15T23:57:29;4.2;4.2;3
